Terminal Aerodrome Forecast
Issued by NWS Upton, NY

Home | Current Version | Previous Version | Text Only | Print | Product List | Glossary On
Versions: 1 2 3 4 5 6 7 8 9 10 11 12 13 14 15 16 17 18 19 20 21 22 23 24 25 26 27 28
000
FTUS41 KOKX 300200 AAA
TAFJFK
TAF AMD
KJFK 300241Z 3003/3106 13005KT P6SM FEW250
     FM300800 VRB04KT P6SM FEW020 SCT200
     FM301300 17007KT P6SM SCT030 BKN150
     FM302000 18014KT P6SM SCT040 BKN120
     FM310300 19009KT P6SM BKN040 BKN120=

USA.gov is the U.S. government's official web portal to all federal, state and local government web resources and services.